sensor_id;sensor_type;location;lat;lon;timestamp;P1;durP1;ratioP1;P2;durP2;ratioP2
21192;SDS011;10754;51.106;7.164;2023-12-07T00:00:04;10.63;;;9.53;;
21192;SDS011;10754;51.106;7.164;2023-12-07T00:02:30;10.70;;;9.70;;
21192;SDS011;10754;51.106;7.164;2023-12-07T00:04:55;10.00;;;9.10;;
21192;SDS011;10754;51.106;7.164;2023-12-07T00:07:21;10.43;;;9.40;;
21192;SDS011;10754;51.106;7.164;2023-12-07T00:09:46;10.90;;;9.90;;
21192;SDS011;10754;51.106;7.164;2023-12-07T00:12:12;10.77;;;9.67;;
21192;SDS011;10754;51.106;7.164;2023-12-07T00:14:37;10.83;;;9.83;;
21192;SDS011;10754;51.106;7.164;2023-12-07T00:17:03;10.60;;;9.60;;
21192;SDS011;10754;51.106;7.164;2023-12-07T00:19:28;10.33;;;9.23;;
21192;SDS011;10754;51.106;7.164;2023-12-07T00:21:54;10.40;;;9.50;;
21192;SDS011;10754;51.106;7.164;2023-12-07T00:24:20;10.17;;;9.27;;
21192;SDS011;10754;51.106;7.164;2023-12-07T00:26:45;9.50;;;8.60;;
21192;SDS011;10754;51.106;7.164;2023-12-07T00:29:11;10.47;;;9.37;;
21192;SDS011;10754;51.106;7.164;2023-12-07T00:31:36;10.60;;;9.57;;
21192;SDS011;10754;51.106;7.164;2023-12-07T00:34:02;9.20;;;8.37;;
21192;SDS011;10754;51.106;7.164;2023-12-07T00:36:27;9.87;;;8.87;;
21192;SDS011;10754;51.106;7.164;2023-12-07T00:38:53;9.53;;;8.60;;
21192;SDS011;10754;51.106;7.164;2023-12-07T00:41:18;10.03;;;8.97;;
21192;SDS011;10754;51.106;7.164;2023-12-07T00:43:44;9.70;;;8.80;;
21192;SDS011;10754;51.106;7.164;2023-12-07T00:46:10;9.43;;;8.53;;
21192;SDS011;10754;51.106;7.164;2023-12-07T00:48:36;9.63;;;8.73;;
21192;SDS011;10754;51.106;7.164;2023-12-07T00:51:01;9.47;;;8.67;;
21192;SDS011;10754;51.106;7.164;2023-12-07T00:53:27;8.90;;;8.10;;
21192;SDS011;10754;51.106;7.164;2023-12-07T00:55:54;10.17;;;9.17;;
21192;SDS011;10754;51.106;7.164;2023-12-07T00:58:19;9.70;;;8.83;;
21192;SDS011;10754;51.106;7.164;2023-12-07T01:00:45;9.70;;;8.83;;
21192;SDS011;10754;51.106;7.164;2023-12-07T01:03:10;9.47;;;8.57;;
21192;SDS011;10754;51.106;7.164;2023-12-07T01:05:36;9.20;;;8.40;;
21192;SDS011;10754;51.106;7.164;2023-12-07T01:08:01;9.93;;;9.13;;
21192;SDS011;10754;51.106;7.164;2023-12-07T01:10:27;9.57;;;8.73;;
21192;SDS011;10754;51.106;7.164;2023-12-07T01:12:52;9.13;;;8.33;;
21192;SDS011;10754;51.106;7.164;2023-12-07T01:15:18;10.23;;;9.33;;
21192;SDS011;10754;51.106;7.164;2023-12-07T01:17:43;9.73;;;8.90;;
21192;SDS011;10754;51.106;7.164;2023-12-07T01:20:09;9.90;;;8.80;;
21192;SDS011;10754;51.106;7.164;2023-12-07T01:22:41;9.73;;;8.80;;
21192;SDS011;10754;51.106;7.164;2023-12-07T01:25:07;10.80;;;9.80;;
21192;SDS011;10754;51.106;7.164;2023-12-07T01:27:33;10.07;;;8.87;;
21192;SDS011;10754;51.106;7.164;2023-12-07T01:29:58;9.80;;;8.90;;
21192;SDS011;10754;51.106;7.164;2023-12-07T01:32:24;10.00;;;9.10;;
21192;SDS011;10754;51.106;7.164;2023-12-07T01:34:49;9.67;;;8.77;;
21192;SDS011;10754;51.106;7.164;2023-12-07T01:37:15;9.90;;;9.00;;
21192;SDS011;10754;51.106;7.164;2023-12-07T01:39:41;10.67;;;9.67;;
21192;SDS011;10754;51.106;7.164;2023-12-07T01:42:08;10.70;;;9.70;;
21192;SDS011;10754;51.106;7.164;2023-12-07T01:44:34;10.20;;;9.30;;
21192;SDS011;10754;51.106;7.164;2023-12-07T01:47:00;9.97;;;9.07;;
21192;SDS011;10754;51.106;7.164;2023-12-07T01:49:26;9.87;;;8.97;;
21192;SDS011;10754;51.106;7.164;2023-12-07T01:51:53;9.63;;;8.77;;
21192;SDS011;10754;51.106;7.164;2023-12-07T01:54:19;9.13;;;8.33;;
21192;SDS011;10754;51.106;7.164;2023-12-07T01:56:44;9.33;;;8.50;;
21192;SDS011;10754;51.106;7.164;2023-12-07T01:59:10;10.10;;;9.10;;
21192;SDS011;10754;51.106;7.164;2023-12-07T02:01:36;9.73;;;8.83;;
21192;SDS011;10754;51.106;7.164;2023-12-07T02:04:02;9.47;;;8.57;;
21192;SDS011;10754;51.106;7.164;2023-12-07T02:06:28;11.17;;;10.17;;
21192;SDS011;10754;51.106;7.164;2023-12-07T02:08:53;11.80;;;10.60;;
21192;SDS011;10754;51.106;7.164;2023-12-07T02:11:19;11.30;;;10.30;;
21192;SDS011;10754;51.106;7.164;2023-12-07T02:13:44;10.93;;;10.03;;
21192;SDS011;10754;51.106;7.164;2023-12-07T02:16:15;12.37;;;9.53;;
21192;SDS011;10754;51.106;7.164;2023-12-07T02:18:48;10.40;;;9.50;;
21192;SDS011;10754;51.106;7.164;2023-12-07T02:21:55;10.80;;;9.70;;
21192;SDS011;10754;51.106;7.164;2023-12-07T02:24:20;11.00;;;10.00;;
21192;SDS011;10754;51.106;7.164;2023-12-07T02:26:47;11.43;;;10.23;;
21192;SDS011;10754;51.106;7.164;2023-12-07T02:29:14;12.03;;;9.90;;
21192;SDS011;10754;51.106;7.164;2023-12-07T02:31:39;10.70;;;9.70;;
21192;SDS011;10754;51.106;7.164;2023-12-07T02:34:05;10.57;;;9.57;;
21192;SDS011;10754;51.106;7.164;2023-12-07T02:36:30;11.73;;;10.63;;
21192;SDS011;10754;51.106;7.164;2023-12-07T02:38:59;11.10;;;10.10;;
21192;SDS011;10754;51.106;7.164;2023-12-07T02:41:28;11.53;;;10.43;;
21192;SDS011;10754;51.106;7.164;2023-12-07T02:43:56;11.90;;;10.80;;
21192;SDS011;10754;51.106;7.164;2023-12-07T02:46:22;11.37;;;10.37;;
21192;SDS011;10754;51.106;7.164;2023-12-07T02:48:49;10.97;;;9.87;;
21192;SDS011;10754;51.106;7.164;2023-12-07T02:51:14;10.30;;;9.30;;
21192;SDS011;10754;51.106;7.164;2023-12-07T02:53:40;11.83;;;10.73;;
21192;SDS011;10754;51.106;7.164;2023-12-07T02:56:06;13.50;;;12.27;;
21192;SDS011;10754;51.106;7.164;2023-12-07T02:58:31;11.27;;;10.17;;
21192;SDS011;10754;51.106;7.164;2023-12-07T03:00:57;10.23;;;9.17;;
21192;SDS011;10754;51.106;7.164;2023-12-07T03:03:24;10.43;;;9.53;;
21192;SDS011;10754;51.106;7.164;2023-12-07T03:05:49;10.30;;;9.40;;
21192;SDS011;10754;51.106;7.164;2023-12-07T03:08:15;10.80;;;9.70;;
21192;SDS011;10754;51.106;7.164;2023-12-07T03:10:40;10.70;;;9.70;;
21192;SDS011;10754;51.106;7.164;2023-12-07T03:13:06;12.33;;;10.83;;
21192;SDS011;10754;51.106;7.164;2023-12-07T03:15:32;13.40;;;12.03;;
21192;SDS011;10754;51.106;7.164;2023-12-07T03:17:57;11.20;;;10.23;;
21192;SDS011;10754;51.106;7.164;2023-12-07T03:20:23;10.50;;;9.50;;
21192;SDS011;10754;51.106;7.164;2023-12-07T03:22:48;11.60;;;10.50;;
21192;SDS011;10754;51.106;7.164;2023-12-07T03:25:14;11.20;;;10.13;;
21192;SDS011;10754;51.106;7.164;2023-12-07T03:27:40;12.53;;;11.33;;
21192;SDS011;10754;51.106;7.164;2023-12-07T03:30:05;10.90;;;9.90;;
21192;SDS011;10754;51.106;7.164;2023-12-07T03:32:32;12.70;;;11.33;;
21192;SDS011;10754;51.106;7.164;2023-12-07T03:34:57;10.27;;;9.37;;
21192;SDS011;10754;51.106;7.164;2023-12-07T03:37:23;10.47;;;9.40;;
21192;SDS011;10754;51.106;7.164;2023-12-07T03:39:48;12.10;;;11.00;;
21192;SDS011;10754;51.106;7.164;2023-12-07T03:42:14;12.90;;;11.73;;
21192;SDS011;10754;51.106;7.164;2023-12-07T03:44:39;12.30;;;11.20;;
21192;SDS011;10754;51.106;7.164;2023-12-07T03:47:05;12.30;;;11.10;;
21192;SDS011;10754;51.106;7.164;2023-12-07T03:49:30;11.73;;;10.63;;
21192;SDS011;10754;51.106;7.164;2023-12-07T03:51:56;11.77;;;10.67;;
21192;SDS011;10754;51.106;7.164;2023-12-07T03:54:21;11.63;;;10.53;;
21192;SDS011;10754;51.106;7.164;2023-12-07T03:56:47;12.27;;;11.17;;
21192;SDS011;10754;51.106;7.164;2023-12-07T03:59:12;11.50;;;10.37;;
21192;SDS011;10754;51.106;7.164;2023-12-07T04:01:38;12.23;;;11.13;;
21192;SDS011;10754;51.106;7.164;2023-12-07T04:04:03;11.47;;;10.37;;
21192;SDS011;10754;51.106;7.164;2023-12-07T04:06:29;12.27;;;11.13;;
21192;SDS011;10754;51.106;7.164;2023-12-07T04:08:55;12.87;;;11.50;;
21192;SDS011;10754;51.106;7.164;2023-12-07T04:11:21;12.77;;;11.27;;
21192;SDS011;10754;51.106;7.164;2023-12-07T04:13:47;11.43;;;10.33;;
21192;SDS011;10754;51.106;7.164;2023-12-07T04:16:13;12.80;;;11.47;;
21192;SDS011;10754;51.106;7.164;2023-12-07T04:18:38;13.03;;;11.83;;
21192;SDS011;10754;51.106;7.164;2023-12-07T04:21:04;11.73;;;10.63;;
21192;SDS011;10754;51.106;7.164;2023-12-07T04:23:30;12.43;;;11.23;;
21192;SDS011;10754;51.106;7.164;2023-12-07T04:25:56;12.57;;;11.47;;
21192;SDS011;10754;51.106;7.164;2023-12-07T04:28:22;14.00;;;12.60;;
21192;SDS011;10754;51.106;7.164;2023-12-07T04:30:47;13.20;;;11.80;;
21192;SDS011;10754;51.106;7.164;2023-12-07T04:33:13;14.47;;;11.97;;
21192;SDS011;10754;51.106;7.164;2023-12-07T04:35:38;13.83;;;12.43;;
21192;SDS011;10754;51.106;7.164;2023-12-07T04:38:04;14.03;;;12.70;;
21192;SDS011;10754;51.106;7.164;2023-12-07T04:40:29;11.33;;;10.23;;
21192;SDS011;10754;51.106;7.164;2023-12-07T04:42:55;11.07;;;10.00;;
21192;SDS011;10754;51.106;7.164;2023-12-07T04:45:20;12.37;;;11.17;;
21192;SDS011;10754;51.106;7.164;2023-12-07T04:47:46;10.90;;;9.90;;
21192;SDS011;10754;51.106;7.164;2023-12-07T04:50:11;10.83;;;9.87;;
21192;SDS011;10754;51.106;7.164;2023-12-07T04:52:37;12.70;;;11.47;;
21192;SDS011;10754;51.106;7.164;2023-12-07T04:55:03;12.97;;;11.77;;
21192;SDS011;10754;51.106;7.164;2023-12-07T04:57:31;12.97;;;11.67;;
21192;SDS011;10754;51.106;7.164;2023-12-07T04:59:57;12.90;;;11.70;;
21192;SDS011;10754;51.106;7.164;2023-12-07T05:02:22;13.63;;;12.23;;
21192;SDS011;10754;51.106;7.164;2023-12-07T05:04:48;17.37;;;15.57;;
21192;SDS011;10754;51.106;7.164;2023-12-07T05:07:14;16.10;;;14.33;;
21192;SDS011;10754;51.106;7.164;2023-12-07T05:09:39;14.93;;;13.47;;
21192;SDS011;10754;51.106;7.164;2023-12-07T05:12:08;21.03;;;14.00;;
21192;SDS011;10754;51.106;7.164;2023-12-07T05:14:33;14.17;;;12.77;;
21192;SDS011;10754;51.106;7.164;2023-12-07T05:17:00;13.87;;;12.40;;
21192;SDS011;10754;51.106;7.164;2023-12-07T05:19:25;13.83;;;12.43;;
21192;SDS011;10754;51.106;7.164;2023-12-07T05:21:51;14.70;;;13.20;;
21192;SDS011;10754;51.106;7.164;2023-12-07T05:24:17;13.80;;;12.43;;
21192;SDS011;10754;51.106;7.164;2023-12-07T05:26:43;14.70;;;13.23;;
21192;SDS011;10754;51.106;7.164;2023-12-07T05:29:11;65.40;;;17.67;;
21192;SDS011;10754;51.106;7.164;2023-12-07T05:31:37;21.23;;;13.57;;
21192;SDS011;10754;51.106;7.164;2023-12-07T05:34:03;20.53;;;13.57;;
21192;SDS011;10754;51.106;7.164;2023-12-07T05:36:29;12.43;;;11.23;;
21192;SDS011;10754;51.106;7.164;2023-12-07T05:38:54;12.70;;;11.43;;
21192;SDS011;10754;51.106;7.164;2023-12-07T05:41:20;13.17;;;11.97;;
21192;SDS011;10754;51.106;7.164;2023-12-07T05:43:45;12.73;;;11.53;;
21192;SDS011;10754;51.106;7.164;2023-12-07T05:46:11;12.27;;;11.07;;
21192;SDS011;10754;51.106;7.164;2023-12-07T05:48:36;12.63;;;11.43;;
21192;SDS011;10754;51.106;7.164;2023-12-07T05:51:03;11.40;;;10.33;;
21192;SDS011;10754;51.106;7.164;2023-12-07T05:53:28;12.87;;;11.67;;
21192;SDS011;10754;51.106;7.164;2023-12-07T05:55:54;13.63;;;12.33;;
21192;SDS011;10754;51.106;7.164;2023-12-07T05:58:19;15.83;;;14.07;;
21192;SDS011;10754;51.106;7.164;2023-12-07T06:00:45;14.03;;;12.67;;
21192;SDS011;10754;51.106;7.164;2023-12-07T06:03:12;14.93;;;12.63;;
21192;SDS011;10754;51.106;7.164;2023-12-07T06:05:38;12.60;;;11.30;;
21192;SDS011;10754;51.106;7.164;2023-12-07T06:08:04;12.67;;;11.47;;
21192;SDS011;10754;51.106;7.164;2023-12-07T06:10:30;13.13;;;11.77;;
21192;SDS011;10754;51.106;7.164;2023-12-07T06:12:55;12.93;;;11.60;;
21192;SDS011;10754;51.106;7.164;2023-12-07T06:15:23;12.60;;;10.97;;
21192;SDS011;10754;51.106;7.164;2023-12-07T06:17:49;12.83;;;11.40;;
21192;SDS011;10754;51.106;7.164;2023-12-07T06:20:14;11.77;;;10.67;;
21192;SDS011;10754;51.106;7.164;2023-12-07T06:22:40;14.40;;;12.70;;
21192;SDS011;10754;51.106;7.164;2023-12-07T06:25:06;13.30;;;12.03;;
21192;SDS011;10754;51.106;7.164;2023-12-07T06:27:33;11.90;;;10.80;;
21192;SDS011;10754;51.106;7.164;2023-12-07T06:30:00;12.60;;;11.23;;
21192;SDS011;10754;51.106;7.164;2023-12-07T06:32:27;10.90;;;9.90;;
21192;SDS011;10754;51.106;7.164;2023-12-07T06:34:53;11.17;;;10.00;;
21192;SDS011;10754;51.106;7.164;2023-12-07T06:37:18;13.23;;;10.93;;
21192;SDS011;10754;51.106;7.164;2023-12-07T06:39:45;11.87;;;10.67;;
21192;SDS011;10754;51.106;7.164;2023-12-07T06:42:10;11.87;;;10.73;;
21192;SDS011;10754;51.106;7.164;2023-12-07T06:44:36;11.60;;;10.50;;
21192;SDS011;10754;51.106;7.164;2023-12-07T06:47:01;10.93;;;10.00;;
21192;SDS011;10754;51.106;7.164;2023-12-07T06:49:29;10.87;;;9.87;;
21192;SDS011;10754;51.106;7.164;2023-12-07T06:51:55;11.70;;;10.50;;
21192;SDS011;10754;51.106;7.164;2023-12-07T06:54:21;10.10;;;9.10;;
21192;SDS011;10754;51.106;7.164;2023-12-07T06:56:46;10.53;;;9.53;;
21192;SDS011;10754;51.106;7.164;2023-12-07T06:59:12;9.83;;;8.93;;
21192;SDS011;10754;51.106;7.164;2023-12-07T07:01:38;9.20;;;8.40;;
21192;SDS011;10754;51.106;7.164;2023-12-07T07:04:03;9.53;;;8.53;;
21192;SDS011;10754;51.106;7.164;2023-12-07T07:06:29;9.33;;;8.53;;
21192;SDS011;10754;51.106;7.164;2023-12-07T07:08:54;9.07;;;8.27;;
21192;SDS011;10754;51.106;7.164;2023-12-07T07:11:20;9.23;;;8.43;;
21192;SDS011;10754;51.106;7.164;2023-12-07T07:13:45;10.37;;;8.93;;
21192;SDS011;10754;51.106;7.164;2023-12-07T07:16:11;8.97;;;8.07;;
21192;SDS011;10754;51.106;7.164;2023-12-07T07:18:39;8.80;;;7.90;;
21192;SDS011;10754;51.106;7.164;2023-12-07T07:21:05;8.73;;;7.73;;
21192;SDS011;10754;51.106;7.164;2023-12-07T07:23:31;8.83;;;7.80;;
21192;SDS011;10754;51.106;7.164;2023-12-07T07:25:58;8.57;;;7.67;;
21192;SDS011;10754;51.106;7.164;2023-12-07T07:28:24;8.90;;;7.87;;
21192;SDS011;10754;51.106;7.164;2023-12-07T07:30:49;8.20;;;7.40;;
21192;SDS011;10754;51.106;7.164;2023-12-07T07:33:16;9.13;;;8.30;;
21192;SDS011;10754;51.106;7.164;2023-12-07T07:35:42;8.63;;;7.77;;
21192;SDS011;10754;51.106;7.164;2023-12-07T07:38:07;8.27;;;7.47;;
21192;SDS011;10754;51.106;7.164;2023-12-07T07:40:33;11.67;;;7.53;;
21192;SDS011;10754;51.106;7.164;2023-12-07T07:42:58;8.20;;;7.40;;
21192;SDS011;10754;51.106;7.164;2023-12-07T07:45:24;8.63;;;7.83;;
21192;SDS011;10754;51.106;7.164;2023-12-07T07:47:50;8.67;;;7.87;;
21192;SDS011;10754;51.106;7.164;2023-12-07T07:50:15;9.27;;;8.30;;
21192;SDS011;10754;51.106;7.164;2023-12-07T07:52:41;9.33;;;8.43;;
21192;SDS011;10754;51.106;7.164;2023-12-07T07:55:07;9.53;;;8.07;;
21192;SDS011;10754;51.106;7.164;2023-12-07T07:57:33;9.27;;;8.37;;
21192;SDS011;10754;51.106;7.164;2023-12-07T07:59:58;9.30;;;8.00;;
21192;SDS011;10754;51.106;7.164;2023-12-07T08:02:24;8.17;;;7.47;;
21192;SDS011;10754;51.106;7.164;2023-12-07T08:04:50;9.30;;;7.90;;
21192;SDS011;10754;51.106;7.164;2023-12-07T08:07:16;8.80;;;7.93;;
21192;SDS011;10754;51.106;7.164;2023-12-07T08:09:42;8.93;;;8.13;;
21192;SDS011;10754;51.106;7.164;2023-12-07T08:12:08;8.60;;;7.80;;
21192;SDS011;10754;51.106;7.164;2023-12-07T08:14:35;9.37;;;8.57;;
21192;SDS011;10754;51.106;7.164;2023-12-07T08:17:00;9.13;;;8.23;;
21192;SDS011;10754;51.106;7.164;2023-12-07T08:19:26;8.77;;;7.87;;
21192;SDS011;10754;51.106;7.164;2023-12-07T08:21:52;9.57;;;7.83;;
21192;SDS011;10754;51.106;7.164;2023-12-07T08:24:17;8.73;;;7.83;;
21192;SDS011;10754;51.106;7.164;2023-12-07T08:26:43;8.73;;;7.83;;
21192;SDS011;10754;51.106;7.164;2023-12-07T08:29:08;9.23;;;8.37;;
21192;SDS011;10754;51.106;7.164;2023-12-07T08:31:34;10.03;;;9.03;;
21192;SDS011;10754;51.106;7.164;2023-12-07T08:33:59;10.17;;;9.17;;
21192;SDS011;10754;51.106;7.164;2023-12-07T08:36:25;10.50;;;9.40;;
21192;SDS011;10754;51.106;7.164;2023-12-07T08:38:51;9.73;;;8.83;;
21192;SDS011;10754;51.106;7.164;2023-12-07T08:41:17;9.67;;;8.77;;
21192;SDS011;10754;51.106;7.164;2023-12-07T08:43:43;9.40;;;8.50;;
21192;SDS011;10754;51.106;7.164;2023-12-07T08:46:08;9.53;;;8.47;;
21192;SDS011;10754;51.106;7.164;2023-12-07T08:48:35;9.57;;;8.57;;
21192;SDS011;10754;51.106;7.164;2023-12-07T08:51:02;9.70;;;8.80;;
21192;SDS011;10754;51.106;7.164;2023-12-07T08:53:28;10.30;;;8.97;;
21192;SDS011;10754;51.106;7.164;2023-12-07T08:55:54;8.97;;;8.17;;
21192;SDS011;10754;51.106;7.164;2023-12-07T08:58:19;9.10;;;8.20;;
21192;SDS011;10754;51.106;7.164;2023-12-07T09:00:45;9.03;;;8.17;;
21192;SDS011;10754;51.106;7.164;2023-12-07T09:03:11;9.37;;;8.57;;
21192;SDS011;10754;51.106;7.164;2023-12-07T09:05:37;9.00;;;8.30;;
21192;SDS011;10754;51.106;7.164;2023-12-07T09:08:02;9.43;;;8.53;;
21192;SDS011;10754;51.106;7.164;2023-12-07T09:10:28;9.83;;;8.83;;
21192;SDS011;10754;51.106;7.164;2023-12-07T09:12:53;9.17;;;8.33;;
21192;SDS011;10754;51.106;7.164;2023-12-07T09:15:19;9.73;;;8.83;;
21192;SDS011;10754;51.106;7.164;2023-12-07T09:17:44;9.50;;;8.63;;
21192;SDS011;10754;51.106;7.164;2023-12-07T09:20:10;9.93;;;8.93;;
21192;SDS011;10754;51.106;7.164;2023-12-07T09:22:42;9.33;;;8.43;;
21192;SDS011;10754;51.106;7.164;2023-12-07T09:25:09;10.37;;;9.33;;
21192;SDS011;10754;51.106;7.164;2023-12-07T09:27:36;9.80;;;8.90;;
21192;SDS011;10754;51.106;7.164;2023-12-07T09:30:05;9.93;;;8.93;;
21192;SDS011;10754;51.106;7.164;2023-12-07T09:32:32;9.87;;;8.30;;
21192;SDS011;10754;51.106;7.164;2023-12-07T09:35:03;9.57;;;8.67;;
21192;SDS011;10754;51.106;7.164;2023-12-07T09:37:29;9.90;;;8.90;;
21192;SDS011;10754;51.106;7.164;2023-12-07T09:39:55;9.37;;;8.57;;
21192;SDS011;10754;51.106;7.164;2023-12-07T09:42:20;10.17;;;9.27;;
21192;SDS011;10754;51.106;7.164;2023-12-07T09:44:46;9.30;;;8.40;;
21192;SDS011;10754;51.106;7.164;2023-12-07T09:47:11;9.47;;;8.60;;
21192;SDS011;10754;51.106;7.164;2023-12-07T09:49:37;9.00;;;8.20;;
21192;SDS011;10754;51.106;7.164;2023-12-07T09:52:04;9.13;;;8.33;;
21192;SDS011;10754;51.106;7.164;2023-12-07T09:54:32;9.83;;;8.93;;
21192;SDS011;10754;51.106;7.164;2023-12-07T09:57:00;9.77;;;8.87;;
21192;SDS011;10754;51.106;7.164;2023-12-07T09:59:25;8.80;;;8.00;;
21192;SDS011;10754;51.106;7.164;2023-12-07T10:01:51;9.53;;;8.73;;
21192;SDS011;10754;51.106;7.164;2023-12-07T10:04:20;9.30;;;8.50;;
21192;SDS011;10754;51.106;7.164;2023-12-07T10:06:48;9.33;;;8.43;;
21192;SDS011;10754;51.106;7.164;2023-12-07T10:09:15;8.90;;;8.13;;
21192;SDS011;10754;51.106;7.164;2023-12-07T10:11:43;9.10;;;8.20;;
21192;SDS011;10754;51.106;7.164;2023-12-07T10:14:09;8.83;;;8.00;;
21192;SDS011;10754;51.106;7.164;2023-12-07T10:16:35;9.40;;;8.40;;
21192;SDS011;10754;51.106;7.164;2023-12-07T10:19:14;9.37;;;8.43;;
21192;SDS011;10754;51.106;7.164;2023-12-07T10:21:46;9.43;;;8.60;;
21192;SDS011;10754;51.106;7.164;2023-12-07T10:24:16;9.40;;;8.60;;
21192;SDS011;10754;51.106;7.164;2023-12-07T10:26:48;9.33;;;8.43;;
21192;SDS011;10754;51.106;7.164;2023-12-07T10:29:14;8.57;;;7.67;;
21192;SDS011;10754;51.106;7.164;2023-12-07T10:31:42;9.27;;;8.10;;
21192;SDS011;10754;51.106;7.164;2023-12-07T10:34:09;8.93;;;8.13;;
21192;SDS011;10754;51.106;7.164;2023-12-07T10:36:34;9.03;;;8.13;;
21192;SDS011;10754;51.106;7.164;2023-12-07T10:39:00;8.83;;;8.07;;
21192;SDS011;10754;51.106;7.164;2023-12-07T10:41:27;9.03;;;8.13;;
21192;SDS011;10754;51.106;7.164;2023-12-07T10:43:53;8.47;;;7.67;;
21192;SDS011;10754;51.106;7.164;2023-12-07T10:46:22;9.07;;;8.20;;
21192;SDS011;10754;51.106;7.164;2023-12-07T10:48:48;8.47;;;7.67;;
21192;SDS011;10754;51.106;7.164;2023-12-07T10:51:23;8.80;;;7.97;;
21192;SDS011;10754;51.106;7.164;2023-12-07T10:54:15;8.27;;;7.50;;
21192;SDS011;10754;51.106;7.164;2023-12-07T10:56:44;8.93;;;7.97;;
21192;SDS011;10754;51.106;7.164;2023-12-07T10:59:11;9.47;;;8.57;;
21192;SDS011;10754;51.106;7.164;2023-12-07T11:01:38;9.43;;;8.53;;
21192;SDS011;10754;51.106;7.164;2023-12-07T11:04:05;9.87;;;8.60;;
21192;SDS011;10754;51.106;7.164;2023-12-07T11:06:31;8.90;;;8.10;;
21192;SDS011;10754;51.106;7.164;2023-12-07T11:09:02;9.30;;;8.50;;
21192;SDS011;10754;51.106;7.164;2023-12-07T11:11:39;9.23;;;8.07;;
21192;SDS011;10754;51.106;7.164;2023-12-07T11:14:10;8.60;;;7.80;;
21192;SDS011;10754;51.106;7.164;2023-12-07T11:16:37;10.70;;;9.70;;
21192;SDS011;10754;51.106;7.164;2023-12-07T11:21:57;8.23;;;7.43;;
21192;SDS011;10754;51.106;7.164;2023-12-07T11:24:23;8.57;;;7.87;;
21192;SDS011;10754;51.106;7.164;2023-12-07T11:26:51;8.20;;;7.50;;
21192;SDS011;10754;51.106;7.164;2023-12-07T11:29:20;8.00;;;7.20;;
21192;SDS011;10754;51.106;7.164;2023-12-07T11:31:49;8.03;;;7.30;;
21192;SDS011;10754;51.106;7.164;2023-12-07T11:34:33;8.30;;;7.60;;
21192;SDS011;10754;51.106;7.164;2023-12-07T11:36:59;8.40;;;7.63;;
21192;SDS011;10754;51.106;7.164;2023-12-07T11:39:26;8.03;;;7.40;;
21192;SDS011;10754;51.106;7.164;2023-12-07T11:41:54;7.87;;;7.17;;
21192;SDS011;10754;51.106;7.164;2023-12-07T11:44:36;8.03;;;7.20;;
21192;SDS011;10754;51.106;7.164;2023-12-07T11:47:03;8.20;;;7.50;;
21192;SDS011;10754;51.106;7.164;2023-12-07T11:49:29;9.00;;;6.97;;
21192;SDS011;10754;51.106;7.164;2023-12-07T11:51:56;7.63;;;6.93;;
21192;SDS011;10754;51.106;7.164;2023-12-07T11:54:22;8.67;;;7.67;;
21192;SDS011;10754;51.106;7.164;2023-12-07T11:56:54;7.13;;;6.40;;
21192;SDS011;10754;51.106;7.164;2023-12-07T11:59:21;7.73;;;6.93;;
21192;SDS011;10754;51.106;7.164;2023-12-07T12:01:51;7.40;;;6.70;;
21192;SDS011;10754;51.106;7.164;2023-12-07T12:04:16;6.27;;;5.67;;
21192;SDS011;10754;51.106;7.164;2023-12-07T12:06:45;6.50;;;5.90;;
21192;SDS011;10754;51.106;7.164;2023-12-07T12:09:14;5.97;;;5.47;;
21192;SDS011;10754;51.106;7.164;2023-12-07T12:11:45;6.30;;;5.80;;
21192;SDS011;10754;51.106;7.164;2023-12-07T12:14:12;6.50;;;5.90;;
21192;SDS011;10754;51.106;7.164;2023-12-07T12:16:42;6.30;;;5.70;;
21192;SDS011;10754;51.106;7.164;2023-12-07T12:19:08;6.30;;;5.70;;
21192;SDS011;10754;51.106;7.164;2023-12-07T12:21:34;5.50;;;5.00;;
21192;SDS011;10754;51.106;7.164;2023-12-07T12:24:00;6.37;;;5.53;;
21192;SDS011;10754;51.106;7.164;2023-12-07T12:26:26;6.03;;;5.47;;
21192;SDS011;10754;51.106;7.164;2023-12-07T12:28:52;6.07;;;5.47;;
21192;SDS011;10754;51.106;7.164;2023-12-07T12:31:18;5.87;;;5.37;;
21192;SDS011;10754;51.106;7.164;2023-12-07T12:33:43;5.43;;;4.93;;
21192;SDS011;10754;51.106;7.164;2023-12-07T12:36:09;5.70;;;5.20;;
21192;SDS011;10754;51.106;7.164;2023-12-07T12:38:36;5.77;;;5.27;;
21192;SDS011;10754;51.106;7.164;2023-12-07T12:41:02;7.03;;;5.47;;
21192;SDS011;10754;51.106;7.164;2023-12-07T12:43:31;6.53;;;5.63;;
21192;SDS011;10754;51.106;7.164;2023-12-07T12:45:57;6.40;;;5.80;;
21192;SDS011;10754;51.106;7.164;2023-12-07T12:48:23;6.03;;;5.43;;
21192;SDS011;10754;51.106;7.164;2023-12-07T12:50:48;5.93;;;5.33;;
21192;SDS011;10754;51.106;7.164;2023-12-07T12:53:14;6.60;;;6.00;;
21192;SDS011;10754;51.106;7.164;2023-12-07T12:55:40;5.83;;;5.33;;
21192;SDS011;10754;51.106;7.164;2023-12-07T12:58:07;6.03;;;5.53;;
21192;SDS011;10754;51.106;7.164;2023-12-07T13:00:35;7.33;;;5.40;;
21192;SDS011;10754;51.106;7.164;2023-12-07T13:03:04;6.80;;;6.10;;
21192;SDS011;10754;51.106;7.164;2023-12-07T13:05:30;6.20;;;5.60;;
21192;SDS011;10754;51.106;7.164;2023-12-07T13:07:57;7.00;;;5.40;;
21192;SDS011;10754;51.106;7.164;2023-12-07T13:10:24;6.50;;;5.80;;
21192;SDS011;10754;51.106;7.164;2023-12-07T13:12:50;5.30;;;4.83;;
21192;SDS011;10754;51.106;7.164;2023-12-07T13:15:16;5.70;;;5.20;;
21192;SDS011;10754;51.106;7.164;2023-12-07T13:17:42;5.67;;;5.17;;
21192;SDS011;10754;51.106;7.164;2023-12-07T13:20:08;5.67;;;5.27;;
21192;SDS011;10754;51.106;7.164;2023-12-07T13:22:38;5.70;;;5.20;;
21192;SDS011;10754;51.106;7.164;2023-12-07T13:25:10;6.03;;;5.50;;
21192;SDS011;10754;51.106;7.164;2023-12-07T13:27:37;5.90;;;5.40;;
21192;SDS011;10754;51.106;7.164;2023-12-07T13:30:03;5.90;;;5.40;;
21192;SDS011;10754;51.106;7.164;2023-12-07T13:32:34;6.63;;;5.37;;
21192;SDS011;10754;51.106;7.164;2023-12-07T13:35:02;6.43;;;5.43;;
21192;SDS011;10754;51.106;7.164;2023-12-07T13:37:28;6.10;;;5.50;;
21192;SDS011;10754;51.106;7.164;2023-12-07T13:39:54;5.50;;;5.00;;
21192;SDS011;10754;51.106;7.164;2023-12-07T13:42:24;5.87;;;5.30;;
21192;SDS011;10754;51.106;7.164;2023-12-07T13:44:57;6.63;;;5.53;;
21192;SDS011;10754;51.106;7.164;2023-12-07T13:47:25;6.30;;;5.70;;
21192;SDS011;10754;51.106;7.164;2023-12-07T13:49:57;6.07;;;5.57;;
21192;SDS011;10754;51.106;7.164;2023-12-07T13:52:23;5.77;;;5.23;;
21192;SDS011;10754;51.106;7.164;2023-12-07T13:54:49;5.50;;;4.80;;
21192;SDS011;10754;51.106;7.164;2023-12-07T13:57:15;5.80;;;5.30;;
21192;SDS011;10754;51.106;7.164;2023-12-07T13:59:40;5.53;;;5.03;;
21192;SDS011;10754;51.106;7.164;2023-12-07T14:02:06;5.67;;;5.17;;
21192;SDS011;10754;51.106;7.164;2023-12-07T14:04:35;4.80;;;4.33;;
21192;SDS011;10754;51.106;7.164;2023-12-07T14:07:07;4.83;;;4.37;;
21192;SDS011;10754;51.106;7.164;2023-12-07T14:09:39;5.23;;;4.50;;
21192;SDS011;10754;51.106;7.164;2023-12-07T14:12:06;5.30;;;4.80;;
21192;SDS011;10754;51.106;7.164;2023-12-07T14:14:31;4.87;;;4.47;;
21192;SDS011;10754;51.106;7.164;2023-12-07T14:16:57;5.00;;;4.60;;
21192;SDS011;10754;51.106;7.164;2023-12-07T14:19:23;6.57;;;4.87;;
21192;SDS011;10754;51.106;7.164;2023-12-07T14:21:48;4.50;;;3.83;;
21192;SDS011;10754;51.106;7.164;2023-12-07T14:24:14;4.73;;;4.33;;
21192;SDS011;10754;51.106;7.164;2023-12-07T14:26:42;5.57;;;4.60;;
21192;SDS011;10754;51.106;7.164;2023-12-07T14:29:08;5.10;;;4.40;;
21192;SDS011;10754;51.106;7.164;2023-12-07T14:31:35;4.87;;;4.20;;
21192;SDS011;10754;51.106;7.164;2023-12-07T14:34:02;4.83;;;4.43;;
21192;SDS011;10754;51.106;7.164;2023-12-07T14:36:28;4.83;;;4.20;;